sensor_id;sensor_type;location;lat;lon;timestamp;P1;durP1;ratioP1;P2;durP2;ratioP2
73120;SDS011;61307;49.628;-1.624;2023-09-19T00:02:02;8.63;;;1.30;;
73120;SDS011;61307;49.628;-1.624;2023-09-19T00:04:39;4.78;;;1.58;;
73120;SDS011;61307;49.628;-1.624;2023-09-19T00:14:39;4.47;;;1.42;;
73120;SDS011;61307;49.628;-1.624;2023-09-19T00:37:28;6.53;;;1.40;;
73120;SDS011;61307;49.628;-1.624;2023-09-19T03:40:19;6.82;;;1.40;;
73120;SDS011;61307;49.628;-1.624;2023-09-19T03:42:47;7.05;;;1.20;;
73120;SDS011;61307;49.628;-1.624;2023-09-19T04:49:27;4.35;;;1.58;;
73120;SDS011;61307;49.628;-1.624;2023-09-19T04:52:22;4.35;;;1.52;;
73120;SDS011;61307;49.628;-1.624;2023-09-19T07:06:01;7.50;;;2.10;;
73120;SDS011;61307;49.628;-1.624;2023-09-19T07:08:37;7.53;;;2.03;;
73120;SDS011;61307;49.628;-1.624;2023-09-19T07:11:07;8.38;;;1.73;;
73120;SDS011;61307;49.628;-1.624;2023-09-19T07:13:38;5.88;;;1.55;;
73120;SDS011;61307;49.628;-1.624;2023-09-19T07:16:07;13.52;;;1.70;;
73120;SDS011;61307;49.628;-1.624;2023-09-19T07:18:52;5.75;;;1.63;;
73120;SDS011;61307;49.628;-1.624;2023-09-19T07:21:21;6.05;;;1.92;;
73120;SDS011;61307;49.628;-1.624;2023-09-19T07:23:49;9.00;;;1.52;;
73120;SDS011;61307;49.628;-1.624;2023-09-19T07:26:16;7.03;;;1.80;;
73120;SDS011;61307;49.628;-1.624;2023-09-19T07:28:44;11.55;;;1.95;;
73120;SDS011;61307;49.628;-1.624;2023-09-19T07:31:14;8.13;;;1.88;;
73120;SDS011;61307;49.628;-1.624;2023-09-19T07:33:52;10.80;;;1.70;;
73120;SDS011;61307;49.628;-1.624;2023-09-19T07:36:19;13.02;;;1.67;;
73120;SDS011;61307;49.628;-1.624;2023-09-19T07:38:49;6.97;;;1.67;;
73120;SDS011;61307;49.628;-1.624;2023-09-19T07:48:06;9.20;;;1.45;;
73120;SDS011;61307;49.628;-1.624;2023-09-19T07:53:47;11.77;;;2.30;;
73120;SDS011;61307;49.628;-1.624;2023-09-19T07:56:25;9.65;;;1.73;;
73120;SDS011;61307;49.628;-1.624;2023-09-19T08:08:40;9.68;;;2.13;;
73120;SDS011;61307;49.628;-1.624;2023-09-19T08:11:09;6.00;;;2.10;;
73120;SDS011;61307;49.628;-1.624;2023-09-19T08:13:41;8.60;;;2.10;;
73120;SDS011;61307;49.628;-1.624;2023-09-19T08:16:11;13.02;;;2.00;;
73120;SDS011;61307;49.628;-1.624;2023-09-19T08:19:00;6.43;;;2.15;;
73120;SDS011;61307;49.628;-1.624;2023-09-19T08:21:27;13.05;;;2.10;;
73120;SDS011;61307;49.628;-1.624;2023-09-19T08:23:55;15.55;;;2.17;;
73120;SDS011;61307;49.628;-1.624;2023-09-19T08:26:25;7.35;;;1.60;;
73120;SDS011;61307;49.628;-1.624;2023-09-19T08:28:54;12.10;;;2.17;;
73120;SDS011;61307;49.628;-1.624;2023-09-19T08:31:22;8.80;;;1.80;;
73120;SDS011;61307;49.628;-1.624;2023-09-19T08:33:51;13.07;;;2.15;;
73120;SDS011;61307;49.628;-1.624;2023-09-19T08:36:21;8.73;;;1.92;;
73120;SDS011;61307;49.628;-1.624;2023-09-19T08:38:48;7.35;;;2.10;;
73120;SDS011;61307;49.628;-1.624;2023-09-19T08:41:16;10.20;;;2.10;;
73120;SDS011;61307;49.628;-1.624;2023-09-19T08:43:46;11.13;;;2.03;;
73120;SDS011;61307;49.628;-1.624;2023-09-19T08:46:14;9.63;;;2.20;;
73120;SDS011;61307;49.628;-1.624;2023-09-19T08:48:45;7.03;;;2.28;;
73120;SDS011;61307;49.628;-1.624;2023-09-19T08:51:39;6.93;;;2.03;;
73120;SDS011;61307;49.628;-1.624;2023-09-19T08:54:17;6.55;;;1.70;;
73120;SDS011;61307;49.628;-1.624;2023-09-19T08:57:05;6.25;;;2.10;;
73120;SDS011;61307;49.628;-1.624;2023-09-19T08:59:38;5.32;;;2.33;;
73120;SDS011;61307;49.628;-1.624;2023-09-19T09:02:10;9.65;;;2.10;;
73120;SDS011;61307;49.628;-1.624;2023-09-19T09:04:38;8.70;;;2.38;;
73120;SDS011;61307;49.628;-1.624;2023-09-19T09:07:23;5.45;;;2.05;;
73120;SDS011;61307;49.628;-1.624;2023-09-19T09:09:52;6.70;;;2.42;;
73120;SDS011;61307;49.628;-1.624;2023-09-19T09:12:21;14.25;;;2.33;;
73120;SDS011;61307;49.628;-1.624;2023-09-19T09:14:53;7.68;;;2.05;;
73120;SDS011;61307;49.628;-1.624;2023-09-19T09:23:35;8.65;;;2.10;;
73120;SDS011;61307;49.628;-1.624;2023-09-19T09:26:10;6.90;;;1.90;;
73120;SDS011;61307;49.628;-1.624;2023-09-19T09:28:44;8.60;;;1.98;;
73120;SDS011;61307;49.628;-1.624;2023-09-19T09:31:23;8.55;;;2.47;;
73120;SDS011;61307;49.628;-1.624;2023-09-19T09:33:54;12.13;;;2.13;;
73120;SDS011;61307;49.628;-1.624;2023-09-19T09:36:35;7.72;;;1.85;;
73120;SDS011;61307;49.628;-1.624;2023-09-19T09:39:04;8.50;;;1.98;;
73120;SDS011;61307;49.628;-1.624;2023-09-19T09:41:49;7.25;;;2.20;;
73120;SDS011;61307;49.628;-1.624;2023-09-19T09:44:17;9.73;;;2.00;;
73120;SDS011;61307;49.628;-1.624;2023-09-19T09:46:47;8.77;;;2.03;;
73120;SDS011;61307;49.628;-1.624;2023-09-19T09:49:47;9.82;;;2.20;;
73120;SDS011;61307;49.628;-1.624;2023-09-19T09:52:19;12.48;;;1.88;;
73120;SDS011;61307;49.628;-1.624;2023-09-19T09:54:58;12.27;;;2.35;;
73120;SDS011;61307;49.628;-1.624;2023-09-19T09:58:08;5.32;;;2.00;;
73120;SDS011;61307;49.628;-1.624;2023-09-19T10:00:51;13.30;;;2.50;;
73120;SDS011;61307;49.628;-1.624;2023-09-19T10:06:27;10.70;;;2.30;;
73120;SDS011;61307;49.628;-1.624;2023-09-19T10:09:13;6.13;;;2.17;;
73120;SDS011;61307;49.628;-1.624;2023-09-19T10:11:46;8.63;;;2.60;;
73120;SDS011;61307;49.628;-1.624;2023-09-19T10:14:19;12.27;;;2.58;;
73120;SDS011;61307;49.628;-1.624;2023-09-19T10:16:49;6.57;;;1.95;;
73120;SDS011;61307;49.628;-1.624;2023-09-19T10:19:29;13.77;;;2.72;;
73120;SDS011;61307;49.628;-1.624;2023-09-19T10:22:00;7.13;;;2.55;;
73120;SDS011;61307;49.628;-1.624;2023-09-19T10:24:29;8.32;;;2.38;;
73120;SDS011;61307;49.628;-1.624;2023-09-19T10:27:00;8.50;;;2.53;;
73120;SDS011;61307;49.628;-1.624;2023-09-19T10:29:29;7.45;;;2.50;;
73120;SDS011;61307;49.628;-1.624;2023-09-19T10:32:15;6.40;;;2.45;;
73120;SDS011;61307;49.628;-1.624;2023-09-19T10:34:47;5.70;;;2.08;;
73120;SDS011;61307;49.628;-1.624;2023-09-19T10:37:15;8.25;;;2.78;;
73120;SDS011;61307;49.628;-1.624;2023-09-19T10:39:55;8.35;;;2.33;;
73120;SDS011;61307;49.628;-1.624;2023-09-19T10:42:23;6.47;;;2.65;;
73120;SDS011;61307;49.628;-1.624;2023-09-19T10:44:54;7.95;;;2.33;;
73120;SDS011;61307;49.628;-1.624;2023-09-19T10:47:25;7.15;;;2.92;;
73120;SDS011;61307;49.628;-1.624;2023-09-19T10:49:54;10.13;;;3.13;;
73120;SDS011;61307;49.628;-1.624;2023-09-19T10:52:22;11.63;;;2.85;;
73120;SDS011;61307;49.628;-1.624;2023-09-19T10:55:16;7.38;;;2.10;;
73120;SDS011;61307;49.628;-1.624;2023-09-19T10:57:46;9.80;;;2.50;;
73120;SDS011;61307;49.628;-1.624;2023-09-19T11:00:28;5.32;;;2.40;;
73120;SDS011;61307;49.628;-1.624;2023-09-19T11:03:18;9.30;;;2.63;;
73120;SDS011;61307;49.628;-1.624;2023-09-19T11:06:03;9.80;;;3.05;;
73120;SDS011;61307;49.628;-1.624;2023-09-19T11:11:49;11.30;;;2.72;;
73120;SDS011;61307;49.628;-1.624;2023-09-19T11:20:19;7.82;;;2.30;;
73120;SDS011;61307;49.628;-1.624;2023-09-19T11:25:56;11.80;;;2.92;;
73120;SDS011;61307;49.628;-1.624;2023-09-19T11:28:27;10.85;;;3.83;;
73120;SDS011;61307;49.628;-1.624;2023-09-19T11:33:50;10.35;;;3.17;;
73120;SDS011;61307;49.628;-1.624;2023-09-19T11:36:57;9.52;;;3.00;;
73120;SDS011;61307;49.628;-1.624;2023-09-19T11:39:28;13.13;;;3.10;;
73120;SDS011;61307;49.628;-1.624;2023-09-19T11:41:56;7.88;;;2.72;;
73120;SDS011;61307;49.628;-1.624;2023-09-19T11:44:58;9.93;;;3.53;;
73120;SDS011;61307;49.628;-1.624;2023-09-19T11:47:52;7.90;;;3.20;;
73120;SDS011;61307;49.628;-1.624;2023-09-19T11:50:19;9.48;;;3.10;;
73120;SDS011;61307;49.628;-1.624;2023-09-19T11:52:47;8.55;;;3.00;;
73120;SDS011;61307;49.628;-1.624;2023-09-19T11:55:21;10.15;;;2.70;;
73120;SDS011;61307;49.628;-1.624;2023-09-19T11:57:50;11.60;;;3.13;;
73120;SDS011;61307;49.628;-1.624;2023-09-19T12:00:21;9.80;;;3.38;;
73120;SDS011;61307;49.628;-1.624;2023-09-19T12:02:49;9.90;;;3.15;;
73120;SDS011;61307;49.628;-1.624;2023-09-19T12:05:27;8.55;;;2.78;;
73120;SDS011;61307;49.628;-1.624;2023-09-19T12:08:09;9.02;;;3.00;;
73120;SDS011;61307;49.628;-1.624;2023-09-19T12:10:47;9.05;;;3.10;;
73120;SDS011;61307;49.628;-1.624;2023-09-19T12:16:32;9.85;;;3.03;;
73120;SDS011;61307;49.628;-1.624;2023-09-19T12:19:17;9.05;;;3.78;;
73120;SDS011;61307;49.628;-1.624;2023-09-19T12:21:55;8.63;;;2.75;;
73120;SDS011;61307;49.628;-1.624;2023-09-19T12:27:52;11.55;;;3.35;;
73120;SDS011;61307;49.628;-1.624;2023-09-19T12:36:06;11.48;;;3.58;;
73120;SDS011;61307;49.628;-1.624;2023-09-19T12:41:49;8.82;;;3.35;;
73120;SDS011;61307;49.628;-1.624;2023-09-19T12:44:19;9.70;;;3.33;;
73120;SDS011;61307;49.628;-1.624;2023-09-19T12:46:50;12.68;;;3.47;;
73120;SDS011;61307;49.628;-1.624;2023-09-19T12:49:20;10.43;;;3.80;;
73120;SDS011;61307;49.628;-1.624;2023-09-19T12:51:48;11.73;;;3.53;;
73120;SDS011;61307;49.628;-1.624;2023-09-19T12:54:25;11.75;;;3.10;;
73120;SDS011;61307;49.628;-1.624;2023-09-19T12:57:23;13.85;;;3.47;;
73120;SDS011;61307;49.628;-1.624;2023-09-19T12:59:53;11.65;;;3.90;;
73120;SDS011;61307;49.628;-1.624;2023-09-19T13:02:22;12.88;;;3.38;;
73120;SDS011;61307;49.628;-1.624;2023-09-19T13:04:54;10.18;;;3.60;;
73120;SDS011;61307;49.628;-1.624;2023-09-19T13:07:40;10.48;;;3.65;;
73120;SDS011;61307;49.628;-1.624;2023-09-19T13:10:12;11.98;;;3.63;;
73120;SDS011;61307;49.628;-1.624;2023-09-19T13:12:42;12.45;;;4.20;;
73120;SDS011;61307;49.628;-1.624;2023-09-19T13:15:14;11.05;;;3.92;;
73120;SDS011;61307;49.628;-1.624;2023-09-19T13:17:45;8.95;;;3.63;;
73120;SDS011;61307;49.628;-1.624;2023-09-19T13:20:21;14.55;;;3.58;;
73120;SDS011;61307;49.628;-1.624;2023-09-19T13:22:54;9.57;;;4.10;;
73120;SDS011;61307;49.628;-1.624;2023-09-19T13:25:26;12.15;;;3.92;;
73120;SDS011;61307;49.628;-1.624;2023-09-19T13:27:55;10.38;;;3.50;;
73120;SDS011;61307;49.628;-1.624;2023-09-19T13:30:26;13.75;;;4.20;;
73120;SDS011;61307;49.628;-1.624;2023-09-19T13:33:06;8.85;;;3.33;;
73120;SDS011;61307;49.628;-1.624;2023-09-19T13:35:35;11.25;;;3.92;;
73120;SDS011;61307;49.628;-1.624;2023-09-19T13:38:06;12.07;;;4.00;;
73120;SDS011;61307;49.628;-1.624;2023-09-19T13:40:36;9.40;;;3.83;;
73120;SDS011;61307;49.628;-1.624;2023-09-19T13:46:02;12.45;;;4.63;;
73120;SDS011;61307;49.628;-1.624;2023-09-19T13:48:30;11.57;;;4.28;;
73120;SDS011;61307;49.628;-1.624;2023-09-19T13:51:01;14.30;;;4.47;;
73120;SDS011;61307;49.628;-1.624;2023-09-19T13:53:29;8.40;;;3.55;;
73120;SDS011;61307;49.628;-1.624;2023-09-19T13:55:57;12.55;;;4.20;;
73120;SDS011;61307;49.628;-1.624;2023-09-19T14:01:16;17.90;;;4.03;;
73120;SDS011;61307;49.628;-1.624;2023-09-19T14:03:44;13.85;;;4.15;;
73120;SDS011;61307;49.628;-1.624;2023-09-19T14:06:15;14.18;;;4.00;;
73120;SDS011;61307;49.628;-1.624;2023-09-19T14:08:43;13.18;;;3.85;;
73120;SDS011;61307;49.628;-1.624;2023-09-19T14:11:12;9.38;;;3.67;;
73120;SDS011;61307;49.628;-1.624;2023-09-19T14:13:42;12.35;;;4.05;;
73120;SDS011;61307;49.628;-1.624;2023-09-19T14:16:12;11.55;;;4.00;;
73120;SDS011;61307;49.628;-1.624;2023-09-19T14:18:41;15.07;;;4.38;;
73120;SDS011;61307;49.628;-1.624;2023-09-19T14:21:09;10.68;;;3.83;;
73120;SDS011;61307;49.628;-1.624;2023-09-19T14:23:37;10.60;;;4.68;;
73120;SDS011;61307;49.628;-1.624;2023-09-19T14:26:05;9.88;;;3.92;;
73120;SDS011;61307;49.628;-1.624;2023-09-19T14:28:32;11.63;;;4.25;;
73120;SDS011;61307;49.628;-1.624;2023-09-19T14:31:03;13.25;;;4.20;;
73120;SDS011;61307;49.628;-1.624;2023-09-19T14:33:32;10.60;;;3.97;;
73120;SDS011;61307;49.628;-1.624;2023-09-19T14:36:04;12.25;;;3.60;;
73120;SDS011;61307;49.628;-1.624;2023-09-19T14:38:32;7.60;;;3.60;;
73120;SDS011;61307;49.628;-1.624;2023-09-19T14:41:04;11.93;;;4.18;;
73120;SDS011;61307;49.628;-1.624;2023-09-19T14:44:23;12.88;;;4.32;;
73120;SDS011;61307;49.628;-1.624;2023-09-19T14:47:14;12.32;;;4.30;;
73120;SDS011;61307;49.628;-1.624;2023-09-19T14:49:42;11.60;;;4.20;;
73120;SDS011;61307;49.628;-1.624;2023-09-19T14:52:43;11.95;;;4.55;;
73120;SDS011;61307;49.628;-1.624;2023-09-19T14:55:19;10.75;;;4.00;;
73120;SDS011;61307;49.628;-1.624;2023-09-19T14:57:52;12.25;;;4.10;;
73120;SDS011;61307;49.628;-1.624;2023-09-19T15:00:24;11.57;;;4.18;;
73120;SDS011;61307;49.628;-1.624;2023-09-19T15:02:52;11.65;;;4.10;;
73120;SDS011;61307;49.628;-1.624;2023-09-19T15:05:23;12.63;;;4.10;;
73120;SDS011;61307;49.628;-1.624;2023-09-19T15:07:52;10.55;;;4.30;;
73120;SDS011;61307;49.628;-1.624;2023-09-19T15:14:53;9.25;;;3.85;;
73120;SDS011;61307;49.628;-1.624;2023-09-19T15:23:27;12.45;;;4.30;;
73120;SDS011;61307;49.628;-1.624;2023-09-19T15:25:56;12.75;;;4.10;;
73120;SDS011;61307;49.628;-1.624;2023-09-19T15:28:24;12.13;;;4.13;;
73120;SDS011;61307;49.628;-1.624;2023-09-19T15:31:10;11.93;;;3.97;;
73120;SDS011;61307;49.628;-1.624;2023-09-19T15:33:38;9.38;;;4.05;;
73120;SDS011;61307;49.628;-1.624;2023-09-19T15:36:27;12.95;;;3.95;;
73120;SDS011;61307;49.628;-1.624;2023-09-19T15:39:00;10.40;;;3.90;;
73120;SDS011;61307;49.628;-1.624;2023-09-19T15:41:29;9.18;;;4.10;;
73120;SDS011;61307;49.628;-1.624;2023-09-19T15:44:02;8.80;;;3.33;;
73120;SDS011;61307;49.628;-1.624;2023-09-19T15:46:47;7.18;;;3.60;;
73120;SDS011;61307;49.628;-1.624;2023-09-19T15:49:30;9.48;;;3.47;;
73120;SDS011;61307;49.628;-1.624;2023-09-19T15:51:57;14.68;;;4.15;;
73120;SDS011;61307;49.628;-1.624;2023-09-19T15:54:40;10.18;;;3.75;;
73120;SDS011;61307;49.628;-1.624;2023-09-19T15:57:11;14.20;;;4.18;;
73120;SDS011;61307;49.628;-1.624;2023-09-19T16:00:06;12.35;;;3.92;;
73120;SDS011;61307;49.628;-1.624;2023-09-19T16:02:53;15.00;;;3.88;;
73120;SDS011;61307;49.628;-1.624;2023-09-19T16:05:21;12.70;;;4.20;;
73120;SDS011;61307;49.628;-1.624;2023-09-19T16:07:48;13.30;;;3.83;;
73120;SDS011;61307;49.628;-1.624;2023-09-19T16:10:17;10.70;;;3.55;;
73120;SDS011;61307;49.628;-1.624;2023-09-19T16:12:44;11.32;;;4.20;;
73120;SDS011;61307;49.628;-1.624;2023-09-19T16:15:12;11.95;;;3.67;;
73120;SDS011;61307;49.628;-1.624;2023-09-19T16:17:41;15.20;;;4.30;;
73120;SDS011;61307;49.628;-1.624;2023-09-19T16:20:08;9.82;;;3.70;;
73120;SDS011;61307;49.628;-1.624;2023-09-19T16:22:38;10.57;;;4.03;;
73120;SDS011;61307;49.628;-1.624;2023-09-19T16:25:06;8.73;;;3.45;;
73120;SDS011;61307;49.628;-1.624;2023-09-19T16:27:38;8.95;;;3.35;;
73120;SDS011;61307;49.628;-1.624;2023-09-19T16:30:07;13.45;;;4.10;;
73120;SDS011;61307;49.628;-1.624;2023-09-19T16:32:39;7.53;;;3.78;;
73120;SDS011;61307;49.628;-1.624;2023-09-19T16:35:07;12.05;;;3.85;;
73120;SDS011;61307;49.628;-1.624;2023-09-19T16:37:36;10.27;;;3.97;;
73120;SDS011;61307;49.628;-1.624;2023-09-19T16:40:05;12.30;;;3.95;;
73120;SDS011;61307;49.628;-1.624;2023-09-19T16:42:34;15.50;;;3.95;;
73120;SDS011;61307;49.628;-1.624;2023-09-19T16:45:05;10.05;;;3.22;;
73120;SDS011;61307;49.628;-1.624;2023-09-19T16:47:33;10.45;;;3.70;;
73120;SDS011;61307;49.628;-1.624;2023-09-19T16:50:01;12.20;;;4.40;;
73120;SDS011;61307;49.628;-1.624;2023-09-19T16:52:29;9.98;;;3.95;;
73120;SDS011;61307;49.628;-1.624;2023-09-19T16:54:59;17.20;;;4.10;;
73120;SDS011;61307;49.628;-1.624;2023-09-19T16:57:27;9.18;;;3.97;;
73120;SDS011;61307;49.628;-1.624;2023-09-19T17:03:09;11.30;;;4.03;;
73120;SDS011;61307;49.628;-1.624;2023-09-19T17:05:38;10.70;;;4.50;;
73120;SDS011;61307;49.628;-1.624;2023-09-19T17:27:37;9.20;;;3.75;;
73120;SDS011;61307;49.628;-1.624;2023-09-19T17:30:06;8.98;;;3.50;;
73120;SDS011;61307;49.628;-1.624;2023-09-19T17:32:42;9.13;;;3.88;;
73120;SDS011;61307;49.628;-1.624;2023-09-19T17:35:27;10.55;;;3.55;;
73120;SDS011;61307;49.628;-1.624;2023-09-19T17:38:19;10.02;;;3.97;;
73120;SDS011;61307;49.628;-1.624;2023-09-19T17:41:05;11.77;;;3.70;;
73120;SDS011;61307;49.628;-1.624;2023-09-19T17:47:05;7.22;;;3.35;;
73120;SDS011;61307;49.628;-1.624;2023-09-19T17:49:36;10.77;;;3.38;;
73120;SDS011;61307;49.628;-1.624;2023-09-19T17:52:04;9.68;;;3.53;;
73120;SDS011;61307;49.628;-1.624;2023-09-19T17:54:59;9.48;;;3.70;;
73120;SDS011;61307;49.628;-1.624;2023-09-19T17:57:29;9.38;;;3.80;;
73120;SDS011;61307;49.628;-1.624;2023-09-19T17:59:57;8.77;;;3.40;;
73120;SDS011;61307;49.628;-1.624;2023-09-19T18:02:32;8.85;;;3.72;;
73120;SDS011;61307;49.628;-1.624;2023-09-19T18:05:04;6.28;;;3.00;;
73120;SDS011;61307;49.628;-1.624;2023-09-19T18:07:53;8.15;;;3.45;;
73120;SDS011;61307;49.628;-1.624;2023-09-19T18:10:21;7.35;;;3.10;;
73120;SDS011;61307;49.628;-1.624;2023-09-19T18:12:52;6.07;;;2.97;;
73120;SDS011;61307;49.628;-1.624;2023-09-19T18:15:20;7.55;;;3.20;;
73120;SDS011;61307;49.628;-1.624;2023-09-19T18:18:05;9.18;;;2.92;;
73120;SDS011;61307;49.628;-1.624;2023-09-19T18:20:38;10.02;;;3.00;;
73120;SDS011;61307;49.628;-1.624;2023-09-19T18:23:11;9.45;;;3.25;;
73120;SDS011;61307;49.628;-1.624;2023-09-19T18:25:38;10.07;;;3.13;;
73120;SDS011;61307;49.628;-1.624;2023-09-19T18:28:09;11.32;;;3.40;;
73120;SDS011;61307;49.628;-1.624;2023-09-19T18:30:47;7.32;;;3.40;;
73120;SDS011;61307;49.628;-1.624;2023-09-19T18:33:16;12.05;;;3.25;;
73120;SDS011;61307;49.628;-1.624;2023-09-19T18:35:50;9.48;;;2.65;;
73120;SDS011;61307;49.628;-1.624;2023-09-19T18:38:17;5.97;;;3.00;;
73120;SDS011;61307;49.628;-1.624;2023-09-19T18:40:47;7.60;;;3.35;;
73120;SDS011;61307;49.628;-1.624;2023-09-19T18:43:16;8.85;;;3.15;;
73120;SDS011;61307;49.628;-1.624;2023-09-19T18:45:44;8.90;;;3.17;;
73120;SDS011;61307;49.628;-1.624;2023-09-19T18:48:24;8.73;;;3.53;;
73120;SDS011;61307;49.628;-1.624;2023-09-19T18:50:53;8.93;;;3.17;;
73120;SDS011;61307;49.628;-1.624;2023-09-19T18:53:20;8.80;;;3.15;;
73120;SDS011;61307;49.628;-1.624;2023-09-19T18:56:01;7.80;;;2.75;;
73120;SDS011;61307;49.628;-1.624;2023-09-19T18:58:29;10.60;;;3.40;;
73120;SDS011;61307;49.628;-1.624;2023-09-19T19:00:59;8.75;;;2.92;;
73120;SDS011;61307;49.628;-1.624;2023-09-19T19:03:29;8.05;;;3.75;;
73120;SDS011;61307;49.628;-1.624;2023-09-19T19:05:56;9.95;;;3.13;;
73120;SDS011;61307;49.628;-1.624;2023-09-19T19:08:24;5.95;;;2.80;;
73120;SDS011;61307;49.628;-1.624;2023-09-19T19:10:50;6.72;;;2.90;;
73120;SDS011;61307;49.628;-1.624;2023-09-19T19:13:18;7.10;;;3.47;;
73120;SDS011;61307;49.628;-1.624;2023-09-19T19:15:46;6.47;;;3.10;;
73120;SDS011;61307;49.628;-1.624;2023-09-19T19:18:12;5.40;;;3.13;;
73120;SDS011;61307;49.628;-1.624;2023-09-19T19:20:41;10.43;;;3.13;;
73120;SDS011;61307;49.628;-1.624;2023-09-19T19:23:08;7.78;;;2.65;;
73120;SDS011;61307;49.628;-1.624;2023-09-19T19:25:37;6.97;;;3.20;;
73120;SDS011;61307;49.628;-1.624;2023-09-19T19:28:12;6.95;;;2.97;;
73120;SDS011;61307;49.628;-1.624;2023-09-19T19:30:42;9.07;;;3.20;;
73120;SDS011;61307;49.628;-1.624;2023-09-19T19:33:09;7.32;;;3.33;;
73120;SDS011;61307;49.628;-1.624;2023-09-19T19:35:37;5.75;;;3.05;;
73120;SDS011;61307;49.628;-1.624;2023-09-19T19:38:07;5.80;;;2.90;;
73120;SDS011;61307;49.628;-1.624;2023-09-19T19:40:34;6.70;;;2.83;;
73120;SDS011;61307;49.628;-1.624;2023-09-19T19:43:10;4.65;;;2.78;;
73120;SDS011;61307;49.628;-1.624;2023-09-19T19:45:38;6.47;;;2.65;;
73120;SDS011;61307;49.628;-1.624;2023-09-19T19:48:05;5.38;;;2.40;;
73120;SDS011;61307;49.628;-1.624;2023-09-19T19:50:38;8.73;;;2.85;;
73120;SDS011;61307;49.628;-1.624;2023-09-19T19:53:08;4.53;;;2.20;;
73120;SDS011;61307;49.628;-1.624;2023-09-19T19:55:35;6.60;;;2.35;;
73120;SDS011;61307;49.628;-1.624;2023-09-19T19:58:04;4.35;;;2.42;;
73120;SDS011;61307;49.628;-1.624;2023-09-19T20:00:33;5.82;;;2.58;;
73120;SDS011;61307;49.628;-1.624;2023-09-19T20:03:02;6.97;;;2.47;;
73120;SDS011;61307;49.628;-1.624;2023-09-19T20:05:30;7.47;;;2.67;;
73120;SDS011;61307;49.628;-1.624;2023-09-19T20:07:57;6.10;;;2.80;;
73120;SDS011;61307;49.628;-1.624;2023-09-19T20:10:26;4.55;;;2.50;;
73120;SDS011;61307;49.628;-1.624;2023-09-19T20:12:53;5.10;;;2.22;;
73120;SDS011;61307;49.628;-1.624;2023-09-19T20:15:21;5.38;;;2.20;;
73120;SDS011;61307;49.628;-1.624;2023-09-19T20:17:50;4.45;;;2.08;;
73120;SDS011;61307;49.628;-1.624;2023-09-19T20:20:18;5.10;;;2.50;;
73120;SDS011;61307;49.628;-1.624;2023-09-19T20:22:47;7.28;;;2.67;;
73120;SDS011;61307;49.628;-1.624;2023-09-19T20:25:15;6.20;;;2.47;;
73120;SDS011;61307;49.628;-1.624;2023-09-19T20:30:26;4.85;;;2.20;;
73120;SDS011;61307;49.628;-1.624;2023-09-19T20:36:13;5.47;;;2.40;;
73120;SDS011;61307;49.628;-1.624;2023-09-19T20:38:40;4.47;;;2.40;;
73120;SDS011;61307;49.628;-1.624;2023-09-19T20:41:08;5.53;;;2.05;;
73120;SDS011;61307;49.628;-1.624;2023-09-19T20:43:37;5.60;;;2.00;;
73120;SDS011;61307;49.628;-1.624;2023-09-19T20:46:05;2.80;;;1.98;;
73120;SDS011;61307;49.628;-1.624;2023-09-19T20:48:33;4.90;;;2.38;;
73120;SDS011;61307;49.628;-1.624;2023-09-19T20:51:06;3.90;;;2.10;;
73120;SDS011;61307;49.628;-1.624;2023-09-19T20:53:35;6.18;;;2.00;;
73120;SDS011;61307;49.628;-1.624;2023-09-19T20:56:03;8.50;;;2.15;;
73120;SDS011;61307;49.628;-1.624;2023-09-19T20:58:31;5.45;;;2.10;;
73120;SDS011;61307;49.628;-1.624;2023-09-19T21:01:03;3.47;;;2.05;;
73120;SDS011;61307;49.628;-1.624;2023-09-19T21:03:31;5.78;;;2.40;;
73120;SDS011;61307;49.628;-1.624;2023-09-19T21:06:00;5.55;;;2.10;;
73120;SDS011;61307;49.628;-1.624;2023-09-19T21:08:29;4.38;;;2.38;;
73120;SDS011;61307;49.628;-1.624;2023-09-19T21:10:57;4.65;;;2.20;;
73120;SDS011;61307;49.628;-1.624;2023-09-19T21:13:24;5.35;;;1.83;;
73120;SDS011;61307;49.628;-1.624;2023-09-19T21:15:53;3.78;;;1.95;;
73120;SDS011;61307;49.628;-1.624;2023-09-19T21:18:22;3.35;;;1.67;;
73120;SDS011;61307;49.628;-1.624;2023-09-19T21:20:49;5.18;;;2.33;;
73120;SDS011;61307;49.628;-1.624;2023-09-19T21:23:16;3.95;;;2.13;;
73120;SDS011;61307;49.628;-1.624;2023-09-19T21:25:49;3.88;;;2.00;;
73120;SDS011;61307;49.628;-1.624;2023-09-19T21:28:20;5.57;;;2.92;;
73120;SDS011;61307;49.628;-1.624;2023-09-19T21:30:56;5.63;;;2.35;;
73120;SDS011;61307;49.628;-1.624;2023-09-19T21:33:26;2.75;;;1.67;;
73120;SDS011;61307;49.628;-1.624;2023-09-19T21:35:54;4.35;;;1.90;;
73120;SDS011;61307;49.628;-1.624;2023-09-19T21:38:21;4.43;;;2.00;;
73120;SDS011;61307;49.628;-1.624;2023-09-19T21:40:49;6.38;;;2.15;;
73120;SDS011;61307;49.628;-1.624;2023-09-19T21:43:17;5.10;;;2.30;;
73120;SDS011;61307;49.628;-1.624;2023-09-19T21:45:44;6.13;;;2.10;;
73120;SDS011;61307;49.628;-1.624;2023-09-19T21:48:11;4.72;;;2.00;;
73120;SDS011;61307;49.628;-1.624;2023-09-19T21:50:40;4.22;;;2.20;;
73120;SDS011;61307;49.628;-1.624;2023-09-19T21:53:24;4.75;;;2.10;;
73120;SDS011;61307;49.628;-1.624;2023-09-19T21:55:59;3.55;;;1.70;;
73120;SDS011;61307;49.628;-1.624;2023-09-19T21:58:28;5.28;;;2.03;;
73120;SDS011;61307;49.628;-1.624;2023-09-19T22:00:57;4.25;;;2.10;;
73120;SDS011;61307;49.628;-1.624;2023-09-19T22:03:32;3.80;;;1.90;;
73120;SDS011;61307;49.628;-1.624;2023-09-19T22:06:03;7.28;;;1.83;;
73120;SDS011;61307;49.628;-1.624;2023-09-19T22:08:31;5.78;;;2.10;;
73120;SDS011;61307;49.628;-1.624;2023-09-19T22:10:59;4.68;;;2.25;;
73120;SDS011;61307;49.628;-1.624;2023-09-19T22:13:27;4.45;;;2.00;;
73120;SDS011;61307;49.628;-1.624;2023-09-19T22:15:56;5.53;;;2.10;;
73120;SDS011;61307;49.628;-1.624;2023-09-19T22:18:24;4.70;;;2.10;;
73120;SDS011;61307;49.628;-1.624;2023-09-19T22:20:52;6.03;;;1.95;;
73120;SDS011;61307;49.628;-1.624;2023-09-19T22:23:26;4.35;;;2.03;;
73120;SDS011;61307;49.628;-1.624;2023-09-19T22:25:57;3.30;;;1.88;;
73120;SDS011;61307;49.628;-1.624;2023-09-19T22:28:29;4.05;;;1.83;;
73120;SDS011;61307;49.628;-1.624;2023-09-19T22:30:59;5.00;;;2.20;;
73120;SDS011;61307;49.628;-1.624;2023-09-19T22:33:26;4.07;;;1.92;;
73120;SDS011;61307;49.628;-1.624;2023-09-19T22:35:54;4.32;;;2.15;;
73120;SDS011;61307;49.628;-1.624;2023-09-19T22:38:23;3.88;;;2.00;;
73120;SDS011;61307;49.628;-1.624;2023-09-19T22:40:53;4.97;;;1.60;;
73120;SDS011;61307;49.628;-1.624;2023-09-19T22:43:22;4.30;;;1.80;;
73120;SDS011;61307;49.628;-1.624;2023-09-19T22:45:53;5.18;;;1.95;;
73120;SDS011;61307;49.628;-1.624;2023-09-19T22:48:21;5.72;;;2.35;;
73120;SDS011;61307;49.628;-1.624;2023-09-19T22:50:51;6.70;;;1.88;;
73120;SDS011;61307;49.628;-1.624;2023-09-19T22:53:22;4.85;;;1.67;;
73120;SDS011;61307;49.628;-1.624;2023-09-19T22:55:51;8.25;;;1.90;;
73120;SDS011;61307;49.628;-1.624;2023-09-19T22:58:21;5.28;;;1.85;;
73120;SDS011;61307;49.628;-1.624;2023-09-19T23:00:48;5.35;;;2.03;;
73120;SDS011;61307;49.628;-1.624;2023-09-19T23:03:16;4.05;;;1.90;;
73120;SDS011;61307;49.628;-1.624;2023-09-19T23:05:47;5.10;;;2.17;;
73120;SDS011;61307;49.628;-1.624;2023-09-19T23:08:14;3.95;;;2.20;;
73120;SDS011;61307;49.628;-1.624;2023-09-19T23:10:42;4.38;;;2.33;;
73120;SDS011;61307;49.628;-1.624;2023-09-19T23:13:16;5.07;;;1.90;;
73120;SDS011;61307;49.628;-1.624;2023-09-19T23:19:02;4.40;;;1.70;;
73120;SDS011;61307;49.628;-1.624;2023-09-19T23:21:42;4.38;;;1.70;;
73120;SDS011;61307;49.628;-1.624;2023-09-19T23:24:12;4.50;;;1.95;;
73120;SDS011;61307;49.628;-1.624;2023-09-19T23:26:53;3.67;;;1.90;;
73120;SDS011;61307;49.628;-1.624;2023-09-19T23:29:31;4.07;;;1.77;;
73120;SDS011;61307;49.628;-1.624;2023-09-19T23:32:00;4.68;;;1.67;;
73120;SDS011;61307;49.628;-1.624;2023-09-19T23:34:30;3.75;;;1.65;;
73120;SDS011;61307;49.628;-1.624;2023-09-19T23:36:59;3.97;;;1.73;;